.
WxDataArchive / Data Records for 2007-09-29
2007-09-28 September 2007 2007-09-30

Data Records for Saturday, 29 September 2007

Time	Temp	Chill	HIndex	Humid	Dewpt	 Wind 	HiWind	WindDir	Rain 	Barom 
-----	----	-----	------	-----	-----	------	------	-------	-----	----- 
00:00	48.0	48.0	48.0	90	45.2	0	0	---	0.00	30.206 
00:05	48.0	48.0	48.0	90	45.2	0	0	---	0.00	30.207 
00:10	47.7	47.7	47.7	90	44.9	0	0	---	0.00	30.206 
00:15	47.6	47.6	47.6	90	44.8	0	0	---	0.00	30.205 
00:20	47.4	47.4	47.4	90	44.6	0	0	---	0.00	30.204 
00:25	47.3	47.3	47.3	91	44.8	0	0	---	0.00	30.208 
00:30	47.1	47.1	47.1	91	44.6	0	0	---	0.00	30.211 
00:35	47.0	47.0	47.0	91	44.5	0	0	---	0.00	30.214 
00:40	46.8	46.8	46.8	91	44.3	0	0	---	0.00	30.216 
00:45	46.8	46.8	46.8	91	44.3	0	0	---	0.00	30.217 
00:50	46.7	46.7	46.7	92	44.5	0	0	---	0.00	30.216 
00:55	46.5	46.5	46.5	92	44.3	0	0	---	0.00	30.217 
01:00	46.4	46.4	46.4	92	44.2	0	0	---	0.00	30.221 
01:05	46.2	46.2	46.2	92	44.0	0	0	---	0.00	30.224 
01:10	46.1	46.1	46.1	92	43.9	0	0	---	0.00	30.225 
01:15	46.1	46.1	46.1	92	43.9	0	0	---	0.00	30.230 
01:20	45.8	45.8	45.8	92	43.6	0	0	---	0.00	30.231 
01:25	45.7	45.7	45.7	92	43.5	0	0	---	0.00	30.229 
01:30	45.5	45.5	45.5	93	43.6	0	0	---	0.00	30.227 
01:35	45.4	45.4	45.4	93	43.5	0	0	---	0.00	30.229 
01:40	45.4	45.4	45.4	93	43.5	0	0	---	0.00	30.230 
01:45	45.4	45.4	45.4	93	43.5	0	0	---	0.00	30.230 
01:50	45.2	45.2	45.2	93	43.3	0	0	---	0.00	30.229 
01:55	45.1	45.1	45.1	93	43.2	0	0	---	0.00	30.230 
02:00	44.9	44.9	44.9	93	43.0	0	0	---	0.00	30.228 
02:05	44.8	44.8	44.8	94	43.2	0	0	---	0.00	30.229 
02:10	44.6	44.6	44.6	94	43.0	0	0	---	0.00	30.223 
02:15	44.6	44.6	44.6	94	43.0	0	0	---	0.00	30.219 
02:20	44.6	44.6	44.6	94	43.0	0	0	---	0.00	30.222 
02:25	44.8	44.8	44.8	94	43.2	0	0	---	0.00	30.221 
02:30	44.8	44.8	44.8	94	43.2	0	0	---	0.00	30.224 
02:35	44.8	44.8	44.8	95	43.5	0	0	---	0.00	30.224 
02:40	44.6	44.6	44.6	95	43.3	0	0	---	0.00	30.225 
02:45	44.6	44.6	44.6	95	43.3	0	0	---	0.00	30.225 
02:50	44.5	44.5	44.5	95	43.2	0	0	---	0.00	30.224 
02:55	44.5	44.5	44.5	95	43.2	0	0	---	0.00	30.224 
03:00	44.5	44.5	44.5	95	43.2	0	0	---	0.00	30.231 
03:05	44.5	44.5	44.5	95	43.2	0	0	---	0.00	30.235 
03:10	44.5	44.5	44.5	95	43.2	0	0	---	0.00	30.236 
03:15	44.3	44.3	44.3	95	43.0	0	0	---	0.00	30.237 
03:20	44.2	44.2	44.2	95	42.9	0	0	---	0.00	30.240 
03:25	44.1	44.1	44.1	95	42.8	0	0	---	0.00	30.242 
03:30	44.1	44.1	44.1	95	42.8	0	0	---	0.00	30.246 
03:35	44.1	44.1	44.1	95	42.8	0	0	---	0.00	30.250 
03:40	44.2	44.2	44.2	95	42.9	0	0	---	0.00	30.252 
03:45	44.2	44.2	44.2	96	43.1	0	0	---	0.00	30.251 
03:50	44.1	44.1	44.1	95	42.8	0	0	---	0.00	30.251 
03:55	43.9	43.9	43.9	95	42.6	0	0	---	0.00	30.252 
04:00	43.9	43.9	43.9	95	42.6	0	0	---	0.00	30.254 
04:05	43.8	43.8	43.8	95	42.5	0	0	---	0.00	30.258 
04:10	43.6	43.6	43.6	96	42.5	0	0	---	0.00	30.263 
04:15	43.8	43.8	43.8	96	42.7	0	0	---	0.00	30.267 
04:20	43.8	43.8	43.8	96	42.7	0	0	---	0.00	30.269 
04:25	43.8	43.8	43.8	96	42.7	0	0	---	0.00	30.268 
04:30	43.5	43.5	43.5	96	42.4	0	0	---	0.00	30.268 
04:35	43.3	43.3	43.3	96	42.2	0	0	---	0.00	30.268 
04:40	43.2	43.2	43.2	96	42.1	0	0	---	0.00	30.269 
04:45	43.1	43.1	43.1	96	42.0	0	0	---	0.00	30.272 
04:50	42.9	42.9	42.9	96	41.8	0	0	---	0.00	30.278 
04:55	42.9	42.9	42.9	96	41.8	0	0	---	0.00	30.275 
05:00	42.8	42.8	42.8	96	41.7	0	0	---	0.00	30.271 
05:05	42.8	42.8	42.8	96	41.7	0	0	---	0.00	30.277 
05:10	42.6	42.6	42.6	96	41.5	0	0	---	0.00	30.277 
05:15	42.6	42.6	42.6	96	41.5	0	0	---	0.00	30.274 
05:20	42.5	42.5	42.5	96	41.4	0	0	---	0.00	30.277 
05:25	42.5	42.5	42.5	96	41.4	0	0	---	0.00	30.280 
05:30	42.5	42.5	42.5	96	41.4	0	0	---	0.00	30.283 
05:35	42.5	42.5	42.5	96	41.4	0	0	---	0.00	30.287 
05:40	42.5	42.5	42.5	96	41.4	0	0	---	0.00	30.290 
05:45	42.5	42.5	42.5	96	41.4	0	0	---	0.00	30.290 
05:50	42.5	42.5	42.5	96	41.4	0	0	---	0.00	30.290 
05:55	42.3	42.3	42.3	96	41.2	0	0	---	0.00	30.298 
06:00	42.3	42.3	42.3	96	41.2	0	0	---	0.00	30.299 
06:05	42.2	42.2	42.2	96	41.1	0	0	---	0.00	30.299 
06:10	42.1	42.1	42.1	96	41.0	0	0	---	0.00	30.299 
06:15	42.1	42.1	42.1	96	41.0	0	0	---	0.00	30.306 
06:20	42.1	42.1	42.1	96	41.0	0	0	---	0.00	30.306 
06:25	42.1	42.1	42.1	96	41.0	0	0	---	0.00	30.307 
06:30	42.1	42.1	42.1	96	41.0	0	0	---	0.00	30.310 
06:35	42.1	42.1	42.1	96	41.0	0	0	---	0.00	30.311 
06:40	41.9	41.9	41.9	96	40.8	0	0	---	0.00	30.314 
06:45	41.9	41.9	41.9	96	40.8	0	0	---	0.00	30.312 
06:50	41.8	41.8	41.8	96	40.7	0	0	---	0.00	30.314 
06:55	41.8	41.8	41.8	96	40.7	0	0	---	0.00	30.314 
07:00	41.9	41.9	41.9	96	40.8	0	0	---	0.00	30.310 
07:05	42.1	42.1	42.1	96	41.0	0	0	---	0.00	30.312 
07:10	42.6	42.6	42.6	97	41.8	0	0	---	0.00	30.314 
07:15	42.9	42.9	42.9	97	42.1	0	0	---	0.00	30.312 
07:20	43.5	43.5	43.5	97	42.7	0	0	---	0.00	30.311 
07:25	44.1	44.1	44.1	97	43.3	0	0	---	0.00	30.311 
07:30	44.5	44.5	44.5	97	43.7	0	0	---	0.00	30.312 
07:35	45.1	45.1	45.1	97	44.3	0	0	---	0.00	30.313 
07:40	45.7	45.7	45.7	97	44.9	0	0	---	0.00	30.313 
07:45	46.2	46.2	46.2	97	45.4	0	0	---	0.00	30.319 
07:50	46.8	46.8	46.8	97	46.0	0	0	---	0.00	30.318 
07:55	47.4	47.4	47.4	97	46.6	0	1	315	0.00	30.318 
08:00	48.6	48.6	48.6	98	48.1	0	1	315	0.00	30.314 
08:05	49.2	49.2	49.2	98	48.7	0	1	315	0.00	30.317 
08:10	49.8	49.8	49.8	97	49.0	0	2	315	0.00	30.316 
08:15	50.4	50.4	50.4	97	49.6	1	2	338	0.00	30.317 
08:20	51.0	51.0	51.0	96	49.9	0	2	338	0.00	30.316 
08:25	51.6	51.6	51.6	92	49.4	0	1	338	0.00	30.318 
08:30	52.5	52.5	52.5	89	49.4	1	2	338	0.00	30.319 
08:35	53.5	53.5	53.5	86	49.4	1	3	22	0.00	30.316 
08:40	54.2	54.2	54.2	84	49.5	0	2	22	0.00	30.315 
08:45	55.0	55.0	55.0	82	49.6	0	3	45	0.00	30.316 
08:50	55.6	55.6	55.6	79	49.2	0	2	45	0.00	30.315 
08:55	56.3	56.3	56.3	77	49.2	0	2	45	0.00	30.316 
09:00	57.2	57.2	57.2	75	49.3	1	2	45	0.00	30.317 
09:05	58.4	58.4	58.4	75	50.5	0	2	45	0.00	30.321 
09:10	59.6	59.6	59.6	70	49.8	0	2	45	0.00	30.322 
09:15	60.9	60.9	60.9	67	49.9	1	3	68	0.00	30.316 
09:20	61.8	61.8	61.8	65	49.9	1	3	68	0.00	30.314 
09:25	62.6	62.6	62.6	64	50.2	1	4	112	0.00	30.315 
09:30	63.2	63.2	63.2	63	50.4	1	3	112	0.00	30.315 
09:35	63.9	63.9	63.9	61	50.2	1	2	112	0.00	30.313 
09:40	64.5	64.5	64.5	60	50.3	0	3	90	0.00	30.315 
09:45	65.5	65.5	65.5	58	50.3	1	2	90	0.00	30.318 
09:50	66.3	66.3	66.3	59	51.5	0	2	90	0.00	30.317 
09:55	66.9	66.9	66.9	55	50.2	1	4	112	0.00	30.323 
10:00	67.3	67.3	67.3	54	50.1	2	4	112	0.00	30.320 
10:05	67.8	67.8	67.8	54	50.5	1	2	112	0.00	30.325 
10:10	68.4	68.4	68.4	53	50.6	1	2	68	0.00	30.324 
10:15	68.9	68.9	68.9	53	51.1	1	3	90	0.00	30.324 
10:20	69.3	69.3	69.3	51	50.4	1	3	90	0.00	30.322 
10:25	69.8	69.8	69.8	47	48.6	1	3	90	0.00	30.322 
10:30	70.3	70.3	70.3	50	50.8	1	4	90	0.00	30.322 
10:35	70.8	70.8	70.8	45	48.4	1	3	90	0.00	30.321 
10:40	71.3	71.3	71.3	46	49.4	1	4	90	0.00	30.322 
10:45	71.5	71.5	71.5	42	47.2	1	5	90	0.00	30.321 
10:50	71.6	71.6	71.6	45	49.1	1	3	270	0.00	30.322 
10:55	72.0	72.0	72.0	43	48.3	1	4	270	0.00	30.324 
11:00	72.3	72.3	72.3	44	49.2	0	1	0	0.00	30.323 
11:05	72.7	72.7	72.7	42	48.3	0	2	315	0.00	30.325 
11:10	73.0	73.0	73.0	38	45.9	1	4	248	0.00	30.324 
11:15	73.3	73.3	73.3	38	46.1	1	4	135	0.00	30.325 
11:20	73.5	73.5	73.5	38	46.3	0	2	90	0.00	30.324 
11:25	73.9	73.9	73.9	38	46.7	0	2	68	0.00	30.325 
11:30	74.2	74.2	74.2	36	45.5	1	3	270	0.00	30.325 
11:35	74.7	74.7	74.7	36	46.0	0	2	270	0.00	30.325 
11:40	74.9	74.9	74.9	37	46.9	1	3	248	0.00	30.327 
11:45	75.1	75.1	77.3	36	46.3	1	2	90	0.00	30.326 
11:50	74.9	74.9	74.9	36	46.1	1	2	90	0.00	30.325 
11:55	74.6	74.6	74.6	37	46.6	1	3	315	0.00	30.324 
12:00	75.1	75.1	77.3	35	45.6	1	3	68	0.00	30.324 
12:05	75.3	75.3	77.4	35	45.7	1	2	68	0.00	30.324 
12:10	75.4	75.4	77.2	32	43.5	1	3	68	0.00	30.321 
12:15	75.8	75.8	77.5	35	46.2	0	2	68	0.00	30.315 
12:20	76.3	76.3	77.5	32	44.3	1	3	90	0.00	30.313 
12:25	76.5	76.5	77.7	33	45.2	1	3	90	0.00	30.309 
12:30	76.0	76.0	77.4	32	44.0	1	5	90	0.00	30.308 
12:35	75.8	75.8	77.4	33	44.6	1	3	90	0.00	30.307 
12:40	75.8	75.8	77.3	31	43.0	2	4	90	0.00	30.306 
12:45	76.1	76.1	77.4	32	44.1	1	2	90	0.00	30.304 
12:50	76.3	76.3	77.5	31	43.4	1	3	158	0.00	30.302 
12:55	76.3	76.3	77.7	36	47.4	1	4	90	0.00	30.298 
13:00	76.7	76.7	77.7	33	45.4	1	4	90	0.00	30.297 
13:05	77.0	77.0	77.7	30	43.2	1	4	112	0.00	30.296 
13:10	77.2	77.2	77.8	31	44.2	1	5	248	0.00	30.295 
13:15	77.2	77.2	77.9	33	45.8	1	6	90	0.00	30.295 
13:20	77.2	77.2	77.9	32	45.0	1	2	90	0.00	30.293 
13:25	77.4	77.4	77.9	31	44.4	1	4	225	0.00	30.292 
13:30	77.2	77.2	77.8	31	44.2	1	3	248	0.00	30.292 
13:35	77.2	77.2	77.9	33	45.8	0	2	248	0.00	30.292 
13:40	77.0	77.0	77.7	30	43.2	1	4	68	0.00	30.292 
13:45	76.7	76.7	77.6	31	43.8	1	3	225	0.00	30.291 
13:50	76.3	76.3	77.5	31	43.4	1	3	248	0.00	30.292 
13:55	76.5	76.5	77.7	33	45.2	0	2	248	0.00	30.291 
14:00	76.8	76.8	77.6	30	43.0	1	3	248	0.00	30.288 
14:05	77.2	77.2	77.7	29	42.5	0	1	270	0.00	30.287 
14:10	77.7	77.7	78.1	32	45.5	0	2	270	0.00	30.287 
14:15	77.9	77.9	78.1	31	44.8	1	2	315	0.00	30.290 
14:20	77.6	77.6	77.9	30	43.7	1	3	315	0.00	30.287 
14:25	77.2	77.2	77.8	30	43.3	1	4	90	0.00	30.284 
14:30	76.7	76.7	77.5	30	42.9	1	3	112	0.00	30.283 
14:35	76.3	76.3	77.6	34	45.8	0	2	112	0.00	30.282 
14:40	76.3	76.3	77.5	32	44.3	0	1	112	0.00	30.282 
14:45	76.3	76.3	77.5	31	43.4	1	3	112	0.00	30.279 
14:50	76.1	76.1	77.4	31	43.3	0	1	90	0.00	30.277 
14:55	76.0	76.0	77.5	34	45.6	0	1	90	0.00	30.274 
15:00	76.0	76.0	77.3	30	42.3	0	1	90	0.00	30.276 
15:05	76.1	76.1	77.6	34	45.7	0	4	90	0.00	30.275 
15:10	76.5	76.5	77.6	32	44.4	0	1	90	0.00	30.274 
15:15	76.8	76.8	77.7	31	43.9	0	2	90	0.00	30.270 
15:20	77.4	77.4	78.0	32	45.2	1	2	270	0.00	30.268 
15:25	77.7	77.7	78.0	31	44.6	0	2	270	0.00	30.266 
15:30	77.7	77.7	78.0	30	43.8	1	3	270	0.00	30.263 
15:35	77.7	77.7	77.9	29	42.9	1	2	270	0.00	30.261 
15:40	77.7	77.7	78.0	30	43.8	1	3	270	0.00	30.261 
15:45	77.6	77.6	77.9	29	42.8	1	4	270	0.00	30.261 
15:50	77.6	77.6	77.8	28	41.9	1	3	90	0.00	30.260 
15:55	77.2	77.2	77.8	30	43.3	0	3	90	0.00	30.261 
16:00	77.0	77.0	77.6	29	42.3	1	3	112	0.00	30.261 
16:05	76.8	76.8	77.5	28	41.2	1	3	112	0.00	30.261 
16:10	76.7	76.7	77.4	28	41.1	0	1	112	0.00	30.261 
16:15	76.7	76.7	77.6	31	43.8	0	3	180	0.00	30.260 
16:20	76.5	76.5	77.6	32	44.4	1	3	270	0.00	30.261 
16:25	76.3	76.3	77.5	31	43.4	0	1	270	0.00	30.264 
16:30	76.1	76.1	77.3	30	42.4	0	1	270	0.00	30.264 
16:35	76.0	76.0	77.3	31	43.2	0	1	270	0.00	30.263 
16:40	75.6	75.6	77.2	31	42.8	0	1	270	0.00	30.262 
16:45	75.4	75.4	77.2	32	43.5	0	1	270	0.00	30.261 
16:50	75.3	75.3	77.2	32	43.4	0	2	270	0.00	30.260 
16:55	75.1	75.1	77.2	33	44.0	0	2	270	0.00	30.256 
17:00	75.1	75.1	77.2	33	44.0	0	2	270	0.00	30.253 
17:05	74.9	74.9	74.9	34	44.6	0	1	270	0.00	30.253 
17:10	74.7	74.7	74.7	34	44.4	0	1	270	0.00	30.254 
17:15	74.6	74.6	74.6	35	45.1	0	1	270	0.00	30.252 
17:20	74.4	74.4	74.4	37	46.4	0	1	270	0.00	30.251 
17:25	74.0	74.0	74.0	36	45.3	0	1	270	0.00	30.251 
17:30	73.9	73.9	73.9	38	46.7	0	1	270	0.00	30.251 
17:35	73.5	73.5	73.5	38	46.3	0	1	270	0.00	30.252 
17:40	73.2	73.2	73.2	38	46.1	0	1	270	0.00	30.254 
17:45	72.7	72.7	72.7	40	47.0	0	1	270	0.00	30.252 
17:50	72.3	72.3	72.3	40	46.6	0	1	270	0.00	30.252 
17:55	72.0	72.0	72.0	41	47.0	0	0	---	0.00	30.252 
18:00	71.6	71.6	71.6	39	45.3	0	1	270	0.00	30.251 
18:05	71.3	71.3	71.3	41	46.4	0	0	---	0.00	30.252 
18:10	70.9	70.9	70.9	42	46.6	0	0	---	0.00	30.254 
18:15	70.4	70.4	70.4	42	46.2	0	0	---	0.00	30.254 
18:20	69.4	69.4	69.4	45	47.1	0	0	---	0.00	30.258 
18:25	68.6	68.6	68.6	47	47.6	0	0	---	0.00	30.260 
18:30	67.9	67.9	67.9	50	48.6	0	0	---	0.00	30.255 
18:35	66.9	66.9	66.9	53	49.2	0	1	270	0.00	30.253 
18:40	66.1	66.1	66.1	52	48.0	0	1	270	0.00	30.251 
18:45	65.8	65.8	65.8	53	48.2	0	0	---	0.00	30.252 
18:50	65.3	65.3	65.3	51	46.7	0	0	---	0.00	30.255 
18:55	65.0	65.0	65.0	52	46.9	0	0	---	0.00	30.258 
19:00	64.7	64.7	64.7	52	46.7	0	0	---	0.00	30.259 
19:05	64.3	64.3	64.3	55	47.8	0	0	---	0.00	30.253 
19:10	63.9	63.9	63.9	55	47.4	0	0	---	0.00	30.255 
19:15	63.4	63.4	63.4	55	46.9	0	0	---	0.00	30.255 
19:20	62.9	62.9	62.9	58	47.9	0	0	---	0.00	30.255 
19:25	62.6	62.6	62.6	60	48.5	0	0	---	0.00	30.254 
19:30	62.1	62.1	62.1	61	48.5	0	0	---	0.00	30.256 
19:35	61.6	61.6	61.6	61	48.0	0	0	---	0.00	30.255 
19:40	61.3	61.3	61.3	63	48.6	0	0	---	0.00	30.256 
19:45	60.9	60.9	60.9	64	48.6	0	0	---	0.00	30.254 
19:50	60.4	60.4	60.4	64	48.2	0	0	---	0.00	30.255 
19:55	60.1	60.1	60.1	65	48.3	0	0	---	0.00	30.257 
20:00	59.8	59.8	59.8	66	48.4	0	0	---	0.00	30.257 
20:05	59.6	59.6	59.6	67	48.6	0	1	270	0.00	30.250 
20:10	59.5	59.5	59.5	67	48.5	0	0	---	0.00	30.250 
20:15	59.2	59.2	59.2	66	47.8	0	0	---	0.00	30.250 
20:20	59.0	59.0	59.0	65	47.2	0	0	---	0.00	30.250 
20:25	58.9	58.9	58.9	65	47.2	0	0	---	0.00	30.251 
20:30	58.7	58.7	58.7	65	47.0	0	0	---	0.00	30.251 
20:35	58.6	58.6	58.6	65	46.9	0	0	---	0.00	30.250 
20:40	58.9	58.9	58.9	63	46.3	0	1	270	0.00	30.251 
20:45	59.3	59.3	59.3	62	46.3	0	0	---	0.00	30.252 
20:50	59.6	59.6	59.6	61	46.1	0	0	---	0.00	30.254 
20:55	59.8	59.8	59.8	61	46.3	0	0	---	0.00	30.253 
21:00	59.9	59.9	59.9	61	46.4	0	1	270	0.00	30.251 
21:05	59.9	59.9	59.9	60	46.0	0	0	---	0.00	30.242 
21:10	59.9	59.9	59.9	60	46.0	0	0	---	0.00	30.242 
21:15	60.1	60.1	60.1	60	46.2	0	0	---	0.00	30.242 
21:20	60.1	60.1	60.1	61	46.6	0	0	---	0.00	30.242 
21:25	59.9	59.9	59.9	62	46.8	0	1	270	0.00	30.241 
21:30	59.8	59.8	59.8	61	46.3	0	0	---	0.00	30.241 
21:35	59.6	59.6	59.6	62	46.6	0	0	---	0.00	30.241 
21:40	59.5	59.5	59.5	62	46.5	0	0	---	0.00	30.241 
21:45	59.3	59.3	59.3	62	46.3	0	0	---	0.00	30.241 
21:50	59.2	59.2	59.2	62	46.2	0	0	---	0.00	30.239 
21:55	59.2	59.2	59.2	61	45.8	0	1	270	0.00	30.239 
22:00	59.5	59.5	59.5	60	45.6	0	1	270	0.00	30.237 
22:05	59.6	59.6	59.6	59	45.3	0	2	270	0.00	30.235 
22:10	59.9	59.9	59.9	58	45.1	0	1	270	0.00	30.236 
22:15	60.1	60.1	60.1	59	45.7	0	1	270	0.00	30.234 
22:20	59.9	59.9	59.9	59	45.5	0	0	---	0.00	30.234 
22:25	59.8	59.8	59.8	60	45.9	0	0	---	0.00	30.232 
22:30	59.3	59.3	59.3	61	45.8	0	1	270	0.00	30.229 
22:35	59.0	59.0	59.0	61	45.6	0	1	270	0.00	30.230 
22:40	58.7	58.7	58.7	62	45.7	0	1	270	0.00	30.228 
22:45	58.4	58.4	58.4	62	45.4	0	1	270	0.00	30.228 
22:50	58.3	58.3	58.3	63	45.8	0	1	270	0.00	30.228 
22:55	58.1	58.1	58.1	63	45.6	0	1	270	0.00	30.226 
23:00	58.0	58.0	58.0	64	45.9	0	0	---	0.00	30.225 
23:05	57.8	57.8	57.8	64	45.7	0	0	---	0.00	30.226 
23:10	57.5	57.5	57.5	65	45.8	0	0	---	0.00	30.226 
23:15	57.3	57.3	57.3	65	45.6	0	0	---	0.00	30.228 
23:20	57.0	57.0	57.0	66	45.8	0	0	---	0.00	30.228 
23:25	56.6	56.6	56.6	66	45.4	0	0	---	0.00	30.226 
23:30	56.2	56.2	56.2	68	45.8	0	0	---	0.00	30.231 
23:35	55.7	55.7	55.7	69	45.7	0	0	---	0.00	30.233 
23:40	55.3	55.3	55.3	69	45.3	0	0	---	0.00	30.237 
23:45	55.0	55.0	55.0	70	45.4	0	0	---	0.00	30.232 
23:50	54.7	54.7	54.7	71	45.5	0	0	---	0.00	30.227 
23:55	54.4	54.4	54.4	72	45.6	0	0	---	0.00	30.228 

CoCoRaHS
IN-AL-39
A2 Web Hosting
Creative Commons License
GoDaddy
Look for:

loaded 2017-12-13 15:39:36 • last modified 2010-11-18 10:43:29
Privacy PolicyDisclaimer
• wx.awcolley.com is powered by PmWiki v.2002016 •
• all content (unless otherwise noted) © 2017 A W Colley